Time;durP1;ratioP1;P1;durP2;ratioP2;P2;SDS_P1;SDS_P2;PMS_P1;PMS_P2;Temp;Humidity;BMP_temperature;BMP_pressure;BME280_temperature;BME280_humidity;BME280_pressure;Samples;Min_cycle;Max_cycle;Signal;HPM_P1;HPM_P2
2023/09/27 00:01:12;;;;;;;;;;;;;;;15.89;87.71;101916.06;5014499;28;1180;-80
2023/09/27 00:03:37;;;;;;;;;;;;;;;15.88;88.02;101921.41;5018015;28;1299;-81
2023/09/27 00:06:03;;;;;;;;;;;;;;;15.86;87.64;101913.72;5009972;28;1076;-79
2023/09/27 00:08:28;;;;;;;;;;;;;;;15.86;87.86;101924.19;5021137;28;1193;-80
2023/09/27 00:10:53;;;;;;;;;;;;;;;15.87;87.97;101925.00;5014239;28;1319;-80
2023/09/27 00:13:18;;;;;;;;;;;;;;;15.87;88.24;101927.63;5020066;28;1006;-81
2023/09/27 00:15:44;;;;;;;;;;;;;;;15.89;88.30;101925.72;5021369;28;1482;-80
2023/09/27 00:18:09;;;;;;;;;;;;;;;15.89;88.35;101929.16;5021467;28;1919;-80
2023/09/27 00:20:34;;;;;;;;;;;;;;;15.90;88.56;101937.84;5021188;28;1444;-80
2023/09/27 00:23:00;;;;;;;;;;;;;;;15.90;88.31;101941.28;5015260;28;1128;-81
2023/09/27 00:25:25;;;;;;;;;;;;;;;15.89;88.39;101934.38;5021320;28;1090;-80
2023/09/27 00:27:51;;;;;;;;;;;;;;;15.89;88.60;101944.84;5021023;28;1292;-81
2023/09/27 00:30:16;;;;;;;;;;;;;;;15.88;88.60;101948.41;5019149;28;1263;-80
2023/09/27 00:32:42;;;;;;;;;;;;;;;15.87;89.02;101941.53;5033252;28;1318;-80
2023/09/27 00:35:14;;;;;;;;;;;;;;;15.85;88.87;101934.78;5017946;28;1246;-81
2023/09/27 00:37:39;;;;;;;;;;;;;;;15.80;89.43;101932.56;5032892;28;1945;-80
2023/09/27 00:40:10;;;;;;;;;;;;;;;15.79;89.58;101933.53;5013961;28;1325;-83
2023/09/27 00:42:35;;;;;;;;;;;;;;;15.77;89.78;101932.84;5020642;28;1487;-81
2023/09/27 00:45:00;;;;;;;;;;;;;;;15.75;89.43;101929.50;5018041;28;1471;-80
2023/09/27 00:47:26;;;;;;;;;;;;;;;15.75;89.62;101920.84;5005345;28;1205;-80
2023/09/27 00:49:52;;;;;;;;;;;;;;;15.76;89.56;101922.47;5017098;28;1357;-80
2023/09/27 00:52:17;;;;;;;;;;;;;;;15.74;89.91;101935.69;5004343;28;1324;-80
2023/09/27 00:54:43;;;;;;;;;;;;;;;15.69;89.59;101927.41;5014213;28;1197;-81
2023/09/27 00:57:08;;;;;;;;;;;;;;;15.68;90.05;101927.56;5012989;28;1886;-81
2023/09/27 00:59:33;;;;;;;;;;;;;;;15.66;90.30;101923.28;5016923;28;1128;-81
2023/09/27 01:01:59;;;;;;;;;;;;;;;15.64;90.05;101924.38;5011477;28;1316;-81
2023/09/27 01:04:24;;;;;;;;;;;;;;;15.61;90.40;101906.31;5027133;28;1095;-81
2023/09/27 01:06:50;;;;;;;;;;;;;;;15.57;90.14;101907.53;5010395;28;1364;-80
2023/09/27 01:09:17;;;;;;;;;;;;;;;15.53;90.63;101901.72;5021280;28;1257;-81
2023/09/27 01:11:42;;;;;;;;;;;;;;;15.51;90.60;101913.28;5008867;28;1307;-79
2023/09/27 01:14:07;;;;;;;;;;;;;;;15.51;90.53;101919.31;5020430;28;1222;-81
2023/09/27 01:16:32;;;;;;;;;;;;;;;15.51;90.49;101913.28;5012599;28;1201;-80
2023/09/27 01:19:01;;;;;;;;;;;;;;;15.51;90.56;101918.50;5010198;28;1878;-81
2023/09/27 01:21:27;;;;;;;;;;;;;;;15.50;90.71;101909.00;5012520;28;1326;-80
2023/09/27 01:23:52;;;;;;;;;;;;;;;15.50;90.87;101909.00;5019614;28;1189;-81
2023/09/27 01:26:18;;;;;;;;;;;;;;;15.49;90.81;101896.91;5015102;28;1507;-81
2023/09/27 01:28:44;;;;;;;;;;;;;;;15.49;90.98;101900.34;5024770;28;1281;-80
2023/09/27 01:31:09;;;;;;;;;;;;;;;15.49;90.80;101891.66;5011735;28;1285;-81
2023/09/27 01:33:35;;;;;;;;;;;;;;;15.48;90.59;101898.66;5015488;28;1220;-81
2023/09/27 01:36:02;;;;;;;;;;;;;;;15.48;90.84;101882.16;5036039;28;1298;-81
2023/09/27 01:38:28;;;;;;;;;;;;;;;15.46;90.70;101873.63;5013257;28;1910;-82
2023/09/27 01:40:53;;;;;;;;;;;;;;;15.43;90.67;101872.09;5020510;28;1220;-82
2023/09/27 01:43:18;;;;;;;;;;;;;;;15.40;90.33;101873.19;5012573;28;1565;-81
2023/09/27 01:45:44;;;;;;;;;;;;;;;15.36;90.75;101871.78;5019604;28;1304;-81
2023/09/27 01:48:09;;;;;;;;;;;;;;;15.33;90.75;101864.22;5014784;28;1256;-81
2023/09/27 01:50:35;;;;;;;;;;;;;;;15.30;90.83;101885.38;5006687;28;1500;-81
2023/09/27 01:53:00;;;;;;;;;;;;;;;15.26;90.50;101878.75;5010136;28;1086;-81
2023/09/27 01:55:26;;;;;;;;;;;;;;;15.19;90.64;101888.06;5012234;28;1247;-81
2023/09/27 01:57:52;;;;;;;;;;;;;;;15.09;91.03;101893.25;5004843;28;1910;-80
2023/09/27 02:00:18;;;;;;;;;;;;;;;15.00;90.93;101893.19;5010475;28;1409;-80
2023/09/27 02:02:44;;;;;;;;;;;;;;;14.96;91.62;101886.53;5004298;28;1154;-81
2023/09/27 02:05:10;;;;;;;;;;;;;;;14.93;91.39;101866.75;5011516;28;1091;-80
2023/09/27 02:07:36;;;;;;;;;;;;;;;14.94;91.72;101855.34;5008234;28;1190;-81
2023/09/27 02:10:02;;;;;;;;;;;;;;;14.97;91.77;101862.94;5007481;28;1140;-81
2023/09/27 02:12:28;;;;;;;;;;;;;;;14.98;91.53;101863.75;5017280;28;1248;-80
2023/09/27 02:14:53;;;;;;;;;;;;;;;14.99;91.67;101875.84;5018961;28;1147;-80
2023/09/27 02:17:18;;;;;;;;;;;;;;;14.99;91.53;101874.06;5013218;28;1890;-80
2023/09/27 02:19:43;;;;;;;;;;;;;;;14.97;91.31;101893.44;5029245;28;1726;-81
2023/09/27 02:22:08;;;;;;;;;;;;;;;14.89;91.49;101901.91;5014042;28;1288;-81
2023/09/27 02:24:34;;;;;;;;;;;;;;;14.82;91.81;101901.59;5019418;28;1169;-80
2023/09/27 02:27:00;;;;;;;;;;;;;;;14.78;92.13;101908.00;5015141;28;1443;-80
2023/09/27 02:29:38;;;;;;;;;;;;;;;14.74;92.09;101901.41;5109758;27;1480;-72
2023/09/27 02:32:07;;;;;;;;;;;;;;;14.68;92.25;101901.91;5108436;28;1226;-78
2023/09/27 02:34:32;;;;;;;;;;;;;;;14.64;92.59;101903.09;5114056;28;1393;-78
2023/09/27 02:36:58;;;;;;;;;;;;;;;14.62;92.69;101905.00;5102250;28;1387;-78
2023/09/27 02:39:24;;;;;;;;;;;;;;;14.56;93.04;101901.09;5106850;28;956;-77
2023/09/27 02:41:50;;;;;;;;;;;;;;;14.54;93.09;101904.78;5109680;28;1210;-79
2023/09/27 02:44:15;;;;;;;;;;;;;;;14.52;93.10;101898.88;5101575;28;1705;-81
2023/09/27 02:46:40;;;;;;;;;;;;;;;14.49;93.16;101888.66;5110020;28;1147;-81
2023/09/27 02:49:06;;;;;;;;;;;;;;;14.46;93.51;101892.34;5101852;28;1910;-81
2023/09/27 02:51:32;;;;;;;;;;;;;;;14.46;93.62;101896.75;5100294;28;1248;-80
2023/09/27 02:53:57;;;;;;;;;;;;;;;14.45;93.71;101897.66;5112405;28;1257;-80
2023/09/27 02:56:22;;;;;;;;;;;;;;;14.42;93.64;101908.38;5102878;28;1294;-81
2023/09/27 02:58:47;;;;;;;;;;;;;;;14.39;93.54;101909.44;5103308;28;1202;-81
2023/09/27 03:01:12;;;;;;;;;;;;;;;14.33;93.58;101905.53;5103604;28;1587;-80
2023/09/27 03:03:38;;;;;;;;;;;;;;;14.32;93.99;101901.25;5103189;28;1440;-81
2023/09/27 03:06:04;;;;;;;;;;;;;;;14.30;93.93;101905.78;5132383;27;1416;-80
2023/09/27 03:08:29;;;;;;;;;;;;;;;14.30;93.98;101905.78;5102272;28;1898;-81
2023/09/27 03:10:55;;;;;;;;;;;;;;;14.24;93.66;101901.06;5105775;28;1483;-81
2023/09/27 03:13:20;;;;;;;;;;;;;;;14.16;93.76;101903.44;5106590;28;1063;-81
2023/09/27 03:15:55;;;;;;;;;;;;;;;14.11;94.11;101905.63;5116195;28;1241;-81
2023/09/27 03:18:20;;;;;;;;;;;;;;;14.10;94.34;101903.94;5118899;28;1372;-81
2023/09/27 03:20:46;;;;;;;;;;;;;;;14.10;94.43;101898.72;5109936;28;1474;-81
2023/09/27 03:23:11;;;;;;;;;;;;;;;14.06;94.36;101899.94;5112862;28;1225;-81
2023/09/27 03:25:36;;;;;;;;;;;;;;;14.04;94.82;101894.81;5107650;28;1281;-82
2023/09/27 03:28:01;;;;;;;;;;;;;;;14.02;94.44;101885.47;5102864;28;1902;-81
2023/09/27 03:30:26;;;;;;;;;;;;;;;13.97;94.66;101885.00;5107043;28;1338;-81
2023/09/27 03:32:51;;;;;;;;;;;;;;;13.91;94.74;101896.72;5097549;28;1321;-81
2023/09/27 03:35:17;;;;;;;;;;;;;;;13.86;94.73;101900.66;5101846;28;1222;-81
2023/09/27 03:37:42;;;;;;;;;;;;;;;13.82;95.01;101911.34;5099234;28;1292;-81
2023/09/27 03:40:13;;;;;;;;;;;;;;;13.82;95.08;101921.78;5091369;28;1370;-81
2023/09/27 03:42:38;;;;;;;;;;;;;;;13.79;95.24;101929.00;5096142;28;1237;-81
2023/09/27 03:45:05;;;;;;;;;;;;;;;13.78;95.29;101941.19;5082520;28;1226;-79
2023/09/27 03:47:30;;;;;;;;;;;;;;;13.77;95.42;101929.13;5092505;28;1971;-80
2023/09/27 03:49:56;;;;;;;;;;;;;;;13.77;95.57;101917.84;5097886;28;1308;-81
2023/09/27 03:52:21;;;;;;;;;;;;;;;13.76;95.89;101906.59;5087155;28;1329;-81
2023/09/27 03:54:46;;;;;;;;;;;;;;;13.79;95.83;101901.13;5089794;28;1352;-81
2023/09/27 03:57:11;;;;;;;;;;;;;;;13.81;95.90;101903.63;5090041;28;1336;-79
2023/09/27 03:59:36;;;;;;;;;;;;;;;13.78;96.05;101909.91;5086245;28;1133;-81
2023/09/27 04:02:02;;;;;;;;;;;;;;;13.78;96.19;101919.50;5087321;28;1284;-79
2023/09/27 04:04:28;;;;;;;;;;;;;;;13.77;96.22;101910.88;5086437;28;1319;-80
2023/09/27 04:06:53;;;;;;;;;;;;;;;13.78;96.37;101907.31;5084412;28;2117;-81
2023/09/27 04:09:18;;;;;;;;;;;;;;;13.79;96.50;101916.78;5083637;28;1902;-80
2023/09/27 04:11:43;;;;;;;;;;;;;;;13.81;96.41;101919.25;5086837;28;1243;-81
2023/09/27 04:14:08;;;;;;;;;;;;;;;13.84;96.50;101915.59;5084242;28;1354;-81
2023/09/27 04:16:33;;;;;;;;;;;;;;;13.85;96.68;101914.66;5084820;28;1319;-80
2023/09/27 04:18:59;;;;;;;;;;;;;;;13.88;96.89;101909.16;5090618;28;1253;-81
2023/09/27 04:21:25;;;;;;;;;;;;;;;13.92;96.74;101915.81;5085590;28;1266;-80
2023/09/27 04:23:55;;;;;;;;;;;;;;;13.93;96.78;101913.06;5092460;28;1158;-80
2023/09/27 04:26:20;;;;;;;;;;;;;;;13.94;96.84;101913.94;5090496;28;1254;-79
2023/09/27 04:28:46;;;;;;;;;;;;;;;13.96;96.79;101917.25;5089861;28;1968;-80
2023/09/27 04:31:11;;;;;;;;;;;;;;;13.97;96.75;101924.13;5082604;28;1575;-81
2023/09/27 04:33:36;;;;;;;;;;;;;;;13.96;96.43;101940.72;5094760;28;1163;-79
2023/09/27 04:36:02;;;;;;;;;;;;;;;13.94;96.58;101940.84;5091329;28;1344;-80
2023/09/27 04:38:27;;;;;;;;;;;;;;;13.91;96.66;101945.47;5092084;28;1213;-78
2023/09/27 04:40:52;;;;;;;;;;;;;;;13.85;96.60;101941.53;5083969;28;1359;-79
2023/09/27 04:43:17;;;;;;;;;;;;;;;13.81;96.45;101938.34;5087867;28;1202;-81
2023/09/27 04:45:43;;;;;;;;;;;;;;;13.72;96.75;101940.84;5095736;28;1234;-79
2023/09/27 04:48:08;;;;;;;;;;;;;;;13.71;96.83;101945.25;5085153;28;1901;-80
2023/09/27 04:50:34;;;;;;;;;;;;;;;13.69;96.79;101949.72;5089431;28;1715;-79
2023/09/27 04:52:59;;;;;;;;;;;;;;;13.68;96.95;101953.28;5085585;28;1265;-81
2023/09/27 04:55:25;;;;;;;;;;;;;;;13.69;96.75;101936.69;5087780;28;1525;-81
2023/09/27 04:57:50;;;;;;;;;;;;;;;13.69;96.65;101941.91;5095385;28;1540;-81
2023/09/27 05:00:18;;;;;;;;;;;;;;;13.67;96.69;101949.03;5088308;28;1286;-81
2023/09/27 05:02:44;;;;;;;;;;;;;;;13.63;96.59;101934.56;5085839;28;1293;-82
2023/09/27 05:05:09;;;;;;;;;;;;;;;13.62;96.73;101919.84;5088861;28;1105;-80
2023/09/27 05:07:35;;;;;;;;;;;;;;;13.61;96.53;101927.81;5084327;28;1897;-81
2023/09/27 05:10:00;;;;;;;;;;;;;;;13.57;96.73;101942.84;5085352;28;1110;-79
2023/09/27 05:12:25;;;;;;;;;;;;;;;13.55;96.87;101931.72;5084237;28;1229;-80
2023/09/27 05:14:50;;;;;;;;;;;;;;;13.54;96.65;101917.03;5091723;28;1189;-81
2023/09/27 05:17:15;;;;;;;;;;;;;;;13.50;96.84;101915.59;5096021;28;1236;-80
2023/09/27 05:19:41;;;;;;;;;;;;;;;13.44;96.94;101922.09;5094658;28;1476;-82
2023/09/27 05:22:06;;;;;;;;;;;;;;;13.41;97.32;101924.09;5094291;28;1241;-81
2023/09/27 05:24:37;;;;;;;;;;;;;;;13.39;97.10;101923.41;5093080;28;1380;-81
2023/09/27 05:27:03;;;;;;;;;;;;;;;13.40;97.21;101909.41;5096029;28;1374;-82
2023/09/27 05:29:28;;;;;;;;;;;;;;;13.40;97.21;101909.41;5095745;28;1897;-81
2023/09/27 05:31:53;;;;;;;;;;;;;;;13.40;97.27;101919.84;5084964;28;1318;-81
2023/09/27 05:34:19;;;;;;;;;;;;;;;13.37;97.47;101926.13;5086506;28;1231;-81
2023/09/27 05:36:44;;;;;;;;;;;;;;;13.37;97.59;101922.69;5086881;28;1016;-80
2023/09/27 05:39:09;;;;;;;;;;;;;;;13.37;97.55;101920.91;5088538;28;1273;-80
2023/09/27 05:41:35;;;;;;;;;;;;;;;13.39;97.60;101928.59;5085156;28;1293;-80
2023/09/27 05:44:00;;;;;;;;;;;;;;;13.39;97.55;101923.41;5098840;28;1489;-81
2023/09/27 05:46:26;;;;;;;;;;;;;;;13.38;97.67;101921.75;5080413;28;1199;-80
2023/09/27 05:48:51;;;;;;;;;;;;;;;13.38;97.54;101922.56;5093342;28;1901;-80
2023/09/27 05:51:16;;;;;;;;;;;;;;;13.40;97.51;101914.63;5082039;28;1416;-81
2023/09/27 05:53:42;;;;;;;;;;;;;;;13.40;97.55;101912.03;5095759;28;1213;-81
2023/09/27 05:56:07;;;;;;;;;;;;;;;13.39;97.76;101918.19;5091265;28;1283;-81
2023/09/27 05:58:34;;;;;;;;;;;;;;;13.39;97.67;101908.59;5089025;28;1527;-81
2023/09/27 06:01:00;;;;;;;;;;;;;;;13.40;97.90;101904.19;5085701;28;1019;-80
2023/09/27 06:03:26;;;;;;;;;;;;;;;13.39;97.57;101892.94;5092354;28;1113;-80
2023/09/27 06:05:51;;;;;;;;;;;;;;;13.40;97.52;101905.03;5091936;28;1346;-81
2023/09/27 06:08:16;;;;;;;;;;;;;;;13.39;97.61;101907.75;5090869;28;1894;-81
2023/09/27 06:10:41;;;;;;;;;;;;;;;13.38;97.55;101904.31;5083145;28;1130;-80
2023/09/27 06:13:08;;;;;;;;;;;;;;;13.37;97.49;101912.28;5097282;28;1092;-80
2023/09/27 06:15:33;;;;;;;;;;;;;;;13.35;97.54;101906.31;5090195;28;1107;-80
2023/09/27 06:17:59;;;;;;;;;;;;;;;13.32;97.55;101911.78;5082481;28;1257;-80
2023/09/27 06:20:29;;;;;;;;;;;;;;;13.31;97.80;101899.72;5087167;28;1252;-81
2023/09/27 06:22:57;;;;;;;;;;;;;;;13.33;97.98;101905.63;5085791;28;1137;-81
2023/09/27 06:25:29;;;;;;;;;;;;;;;13.34;98.09;101904.66;5081287;28;968;-81
2023/09/27 06:27:54;;;;;;;;;;;;;;;13.35;98.19;101895.91;5084186;28;1894;-80
2023/09/27 06:30:20;;;;;;;;;;;;;;;13.36;97.96;101897.56;5086670;28;1363;-81
2023/09/27 06:32:46;;;;;;;;;;;;;;;13.37;98.08;101894.03;5083538;28;1659;-79
2023/09/27 06:35:14;;;;;;;;;;;;;;;13.38;98.08;101895.69;5084989;28;1349;-81
2023/09/27 06:37:40;;;;;;;;;;;;;;;13.40;98.36;101904.19;5088766;28;1171;-80
2023/09/27 06:40:08;;;;;;;;;;;;;;;13.41;98.29;101900.66;5084853;28;1056;-81
2023/09/27 06:42:33;;;;;;;;;;;;;;;13.42;98.58;101913.59;5082718;28;1459;-81
2023/09/27 06:44:58;;;;;;;;;;;;;;;13.43;98.79;101909.19;5113829;27;1307;-80
2023/09/27 06:47:24;;;;;;;;;;;;;;;13.45;98.74;101909.91;5087419;28;1894;-80
2023/09/27 06:49:49;;;;;;;;;;;;;;;13.50;98.81;101910.38;5095543;28;1185;-81
2023/09/27 06:52:14;;;;;;;;;;;;;;;13.51;99.08;101905.03;5092353;28;1218;-80
2023/09/27 06:54:40;;;;;;;;;;;;;;;13.59;99.53;101909.69;5087519;28;1254;-81
2023/09/27 06:57:05;;;;;;;;;;;;;;;13.64;99.48;101917.94;5092786;28;1209;-81
2023/09/27 06:59:31;;;;;;;;;;;;;;;13.73;99.59;101925.06;5091864;28;1151;-80
2023/09/27 07:01:57;;;;;;;;;;;;;;;13.77;99.56;101934.34;5087178;28;1175;-79
2023/09/27 07:04:22;;;;;;;;;;;;;;;13.80;99.16;101939.28;5089503;28;1579;-80
2023/09/27 07:06:47;;;;;;;;;;;;;;;13.82;99.52;101932.19;5092797;28;1392;-81
2023/09/27 07:09:15;;;;;;;;;;;;;;;13.88;99.55;101914.38;5089419;28;1902;-80
2023/09/27 07:11:42;;;;;;;;;;;;;;;13.91;99.67;101903.72;5085993;28;1210;-81
2023/09/27 07:14:07;;;;;;;;;;;;;;;13.96;99.51;101906.81;5092171;28;1099;-81
2023/09/27 07:16:32;;;;;;;;;;;;;;;14.01;99.86;101915.09;5087772;28;1578;-81
2023/09/27 07:19:03;;;;;;;;;;;;;;;14.03;99.96;101923.63;5087905;28;1489;-80
2023/09/27 07:21:29;;;;;;;;;;;;;;;14.07;100.00;101919.84;5089592;28;1731;-81
2023/09/27 07:23:54;;;;;;;;;;;;;;;14.11;99.97;101915.19;5092010;28;929;-80
2023/09/27 07:26:20;;;;;;;;;;;;;;;14.15;100.00;101920.03;5087350;28;1474;-80
2023/09/27 07:28:45;;;;;;;;;;;;;;;14.18;100.00;101926.81;5089358;28;1913;-81
2023/09/27 07:31:17;;;;;;;;;;;;;;;14.20;100.00;101930.94;5093140;28;1205;-80
2023/09/27 07:33:52;;;;;;;;;;;;;;;14.23;99.98;101925.50;5083292;28;1472;-80
2023/09/27 07:36:20;;;;;;;;;;;;;;;14.26;99.94;101925.25;5091364;28;1320;-79
2023/09/27 07:38:47;;;;;;;;;;;;;;;14.30;100.00;101915.41;5085403;28;1252;-81
2023/09/27 07:41:14;;;;;;;;;;;;;;;14.33;99.97;101915.97;5089655;28;1574;-79
2023/09/27 07:43:39;;;;;;;;;;;;;;;14.34;100.00;101912.44;5091372;28;1239;-80
2023/09/27 07:46:06;;;;;;;;;;;;;;;14.35;100.00;101911.47;5085880;28;1552;-81
2023/09/27 07:48:32;;;;;;;;;;;;;;;14.38;100.00;101917.38;5088731;28;1894;-81
2023/09/27 07:50:58;;;;;;;;;;;;;;;14.41;100.00;101914.53;5105387;27;1246;-81
2023/09/27 07:53:24;;;;;;;;;;;;;;;14.42;100.00;101916.19;5113940;27;1209;-81
2023/09/27 07:55:51;;;;;;;;;;;;;;;14.45;100.00;101913.31;5098824;28;1396;-79
2023/09/27 07:58:16;;;;;;;;;;;;;;;14.47;100.00;101911.47;5088424;28;1234;-80
2023/09/27 08:00:41;;;;;;;;;;;;;;;14.52;100.00;101917.16;5100039;28;1290;-80
2023/09/27 08:03:10;;;;;;;;;;;;;;;14.53;100.00;101916.19;5085666;28;1105;-81
2023/09/27 08:05:42;;;;;;;;;;;;;;;14.59;100.00;101931.38;5095938;28;1423;-80
2023/09/27 08:08:08;;;;;;;;;;;;;;;14.61;100.00;101924.22;5090814;28;1959;-79
2023/09/27 08:10:34;;;;;;;;;;;;;;;14.67;100.00;101923.72;5090226;28;1086;-79
2023/09/27 08:12:59;;;;;;;;;;;;;;;14.71;100.00;101943.41;5097297;28;1278;-80
2023/09/27 08:15:24;;;;;;;;;;;;;;;14.72;100.00;101947.69;5095879;28;1210;-80
2023/09/27 08:17:50;;;;;;;;;;;;;;;14.77;100.00;101950.75;5085419;28;1298;-80
2023/09/27 08:20:15;;;;;;;;;;;;;;;14.83;100.00;101960.69;5094645;28;1068;-80
2023/09/27 08:22:40;;;;;;;;;;;;;;;14.94;100.00;101969.44;5091946;28;1058;-80
2023/09/27 08:25:08;;;;;;;;;;;;;;;14.99;100.00;101972.53;5089279;28;1325;-80
2023/09/27 08:27:34;;;;;;;;;;;;;;;15.04;100.00;101975.59;5087497;28;1977;-79
2023/09/27 08:30:00;;;;;;;;;;;;;;;15.10;100.00;101973.28;5090948;28;1387;-81
2023/09/27 08:32:25;;;;;;;;;;;;;;;15.21;100.00;101966.34;5090459;28;1270;-80
2023/09/27 08:34:50;;;;;;;;;;;;;;;15.29;100.00;101961.31;5085666;28;1082;-80
2023/09/27 08:37:16;;;;;;;;;;;;;;;15.37;100.00;101970.19;5088233;28;1277;-81
2023/09/27 08:39:41;;;;;;;;;;;;;;;15.46;100.00;101963.34;5083252;28;1250;-81
2023/09/27 08:42:07;;;;;;;;;;;;;;;15.52;100.00;101968.03;5088729;28;1261;-79
2023/09/27 08:44:32;;;;;;;;;;;;;;;15.58;100.00;101964.09;5082798;28;1289;-80
2023/09/27 08:46:58;;;;;;;;;;;;;;;15.64;100.00;101971.44;5086809;28;1248;-80
2023/09/27 08:49:24;;;;;;;;;;;;;;;15.70;100.00;101960.47;5088016;28;1894;-79
2023/09/27 08:51:50;;;;;;;;;;;;;;;15.76;99.92;101962.53;5085969;28;1149;-80
2023/09/27 08:54:17;;;;;;;;;;;;;;;15.84;100.00;101956.69;5084340;28;1214;-79
2023/09/27 08:56:47;;;;;;;;;;;;;;;15.92;100.00;101964.69;5083375;28;1194;-80
2023/09/27 08:59:12;;;;;;;;;;;;;;;15.99;100.00;101949.28;5088722;28;1298;-80
2023/09/27 09:01:38;;;;;;;;;;;;;;;16.05;99.80;101956.59;5088861;28;1262;-80
2023/09/27 09:04:04;;;;;;;;;;;;;;;16.15;100.00;101954.84;5098032;28;1290;-78
2023/09/27 09:06:29;;;;;;;;;;;;;;;16.29;99.49;101951.84;5090630;28;930;-80
2023/09/27 09:08:55;;;;;;;;;;;;;;;16.39;99.88;101947.44;5089970;28;1890;-79
2023/09/27 09:11:22;;;;;;;;;;;;;;;16.50;98.72;101959.59;5110115;27;1646;-79
2023/09/27 09:14:04;;;;;;;;;;;;;;;16.56;99.45;101952.97;5089233;28;1125;-80
2023/09/27 09:16:39;;;;;;;;;;;;;;;16.68;99.75;101951.88;5090052;28;1258;-80
2023/09/27 09:19:23;;;;;;;;;;;;;;;16.78;99.16;101937.03;5085247;28;1280;-80
2023/09/27 09:22:11;;;;;;;;;;;;;;;16.89;99.46;101939.50;5093575;28;1328;-78
2023/09/27 09:24:36;;;;;;;;;;;;;;;16.97;98.84;101926.53;5091379;28;1154;-80
2023/09/27 09:27:09;;;;;;;;;;;;;;;17.05;98.55;101925.84;5088649;28;1324;-80
2023/09/27 09:29:45;;;;;;;;;;;;;;;17.12;98.43;101928.72;5094177;28;1976;-77
2023/09/27 09:32:10;;;;;;;;;;;;;;;17.21;97.99;101922.63;5112160;28;1206;-78
2023/09/27 09:34:42;;;;;;;;;;;;;;;17.28;98.08;101923.72;5114549;28;1494;-78
2023/09/27 09:37:20;;;;;;;;;;;;;;;17.36;97.94;101923.81;5111110;28;1253;-79
2023/09/27 09:39:46;;;;;;;;;;;;;;;17.47;98.24;101926.28;5104558;28;1284;-78
2023/09/27 09:42:12;;;;;;;;;;;;;;;17.55;98.05;101919.47;5102406;28;1202;-79
2023/09/27 09:44:37;;;;;;;;;;;;;;;17.63;97.79;101916.97;5105858;28;1399;-78
2023/09/27 09:47:12;;;;;;;;;;;;;;;17.71;97.75;101914.44;5106902;28;1505;-80
2023/09/27 09:49:38;;;;;;;;;;;;;;;17.80;97.12;101913.59;5112343;28;1902;-79
2023/09/27 09:52:06;;;;;;;;;;;;;;;17.90;97.06;101898.66;5103744;28;1289;-80
2023/09/27 09:54:41;;;;;;;;;;;;;;;17.98;96.32;101890.84;5092874;28;1509;-80
2023/09/27 09:57:07;;;;;;;;;;;;;;;18.07;96.22;101890.97;5097204;28;1190;-79
2023/09/27 09:59:38;;;;;;;;;;;;;;;18.17;96.13;101878.56;5097485;28;1196;-80
2023/09/27 10:02:14;;;;;;;;;;;;;;;18.27;95.21;101880.16;5073064;28;1092;-79
2023/09/27 10:04:40;;;;;;;;;;;;;;;18.35;95.20;101870.69;5073782;28;993;-81
2023/09/27 10:07:06;;;;;;;;;;;;;;;18.44;95.24;101867.16;5075294;28;1087;-79
2023/09/27 10:09:32;;;;;;;;;;;;;;;18.56;94.81;101869.41;5074456;28;1917;-80
2023/09/27 10:11:57;;;;;;;;;;;;;;;18.68;94.38;101871.81;5083892;28;1149;-80
2023/09/27 10:14:22;;;;;;;;;;;;;;;18.78;93.27;101867.31;5090760;28;1051;-80
2023/09/27 10:16:48;;;;;;;;;;;;;;;18.79;92.46;101863.69;5097703;28;1081;-81
2023/09/27 10:19:24;;;;;;;;;;;;;;;18.80;92.45;101871.41;5089962;28;1096;-80
2023/09/27 10:22:05;;;;;;;;;;;;;;;18.87;92.67;101866.41;5086495;28;1310;-80
2023/09/27 10:24:33;;;;;;;;;;;;;;;18.94;91.91;101862.16;5087664;28;1261;-81
2023/09/27 10:26:58;;;;;;;;;;;;;;;19.00;91.82;101865.97;5077006;28;1226;-79
2023/09/27 10:29:23;;;;;;;;;;;;;;;19.05;91.67;101864.53;5084319;28;1953;-80
2023/09/27 10:31:58;;;;;;;;;;;;;;;19.10;90.95;101867.53;5076924;28;1182;-80
2023/09/27 10:34:26;;;;;;;;;;;;;;;19.15;91.19;101863.59;5071115;28;1384;-81
2023/09/27 10:36:51;;;;;;;;;;;;;;;19.21;90.48;101866.44;5081136;28;1223;-80
2023/09/27 10:39:17;;;;;;;;;;;;;;;19.26;90.66;101865.94;5088928;28;1564;-80
2023/09/27 10:41:44;;;;;;;;;;;;;;;19.30;90.59;101862.03;5078381;28;1207;-80
2023/09/27 10:44:10;;;;;;;;;;;;;;;19.36;90.37;101856.97;5089448;28;1445;-80
2023/09/27 10:46:41;;;;;;;;;;;;;;;19.45;90.45;101862.28;5082384;28;1128;-81
2023/09/27 10:49:06;;;;;;;;;;;;;;;19.51;89.68;101859.84;5083056;28;1897;-81
2023/09/27 10:51:32;;;;;;;;;;;;;;;19.55;87.42;101845.34;5085588;28;1322;-79
2023/09/27 10:53:57;;;;;;;;;;;;;;;19.59;88.09;101844.09;5080515;28;1279;-80
2023/09/27 10:56:22;;;;;;;;;;;;;;;19.65;87.96;101831.28;5081129;28;1000;-79
2023/09/27 10:58:52;;;;;;;;;;;;;;;19.69;84.20;101824.72;5088529;28;1271;-80
2023/09/27 11:01:21;;;;;;;;;;;;;;;19.68;84.47;101820.44;5087308;28;1289;-81
2023/09/27 11:03:46;;;;;;;;;;;;;;;19.70;85.31;101816.66;5077422;28;1336;-81
2023/09/27 11:06:12;;;;;;;;;;;;;;;19.74;86.16;101822.44;5081201;28;1548;-80
2023/09/27 11:08:38;;;;;;;;;;;;;;;19.76;84.33;101820.47;5080603;28;1898;-80
2023/09/27 11:11:07;;;;;;;;;;;;;;;19.78;86.69;101813.22;5082467;28;1223;-80
2023/09/27 11:13:32;;;;;;;;;;;;;;;19.78;86.24;101808.75;5080387;28;1335;-81
2023/09/27 11:16:08;;;;;;;;;;;;;;;19.83;86.25;101816.19;5084498;28;1562;-80
2023/09/27 11:18:34;;;;;;;;;;;;;;;19.87;86.20;101807.00;5094188;28;1406;-80
2023/09/27 11:21:08;;;;;;;;;;;;;;;19.92;85.47;101794.16;5093539;28;1049;-80
2023/09/27 11:23:53;;;;;;;;;;;;;;;19.96;85.73;101795.50;5093919;28;1198;-79
2023/09/27 11:26:19;;;;;;;;;;;;;;;19.96;85.22;101784.97;5090109;28;1144;-80
2023/09/27 11:28:45;;;;;;;;;;;;;;;20.00;84.83;101786.25;5084133;28;1964;-80
2023/09/27 11:31:20;;;;;;;;;;;;;;;20.09;84.44;101790.56;5087742;28;1351;-80
2023/09/27 11:33:46;;;;;;;;;;;;;;;20.19;83.73;101781.69;5085699;28;1274;-79
2023/09/27 11:36:11;;;;;;;;;;;;;;;20.26;84.11;101778.22;5087589;28;1389;-81
2023/09/27 11:38:36;;;;;;;;;;;;;;;20.36;84.02;101770.16;5083588;28;1191;-81
2023/09/27 11:41:04;;;;;;;;;;;;;;;20.46;83.33;101775.25;5076625;28;1376;-79
2023/09/27 11:43:33;;;;;;;;;;;;;;;20.57;83.39;101772.28;5085559;28;1404;-80
2023/09/27 11:45:58;;;;;;;;;;;;;;;20.71;82.83;101768.13;5081294;28;1306;-80
2023/09/27 11:48:31;;;;;;;;;;;;;;;20.80;82.79;101757.38;5084997;28;1960;-82
2023/09/27 11:50:57;;;;;;;;;;;;;;;20.92;81.91;101757.84;5086480;28;1438;-80
2023/09/27 11:53:23;;;;;;;;;;;;;;;21.03;80.47;101749.56;5075929;28;1477;-79
2023/09/27 11:55:48;;;;;;;;;;;;;;;21.15;81.32;101732.34;5084216;28;1373;-78
2023/09/27 11:58:13;;;;;;;;;;;;;;;21.23;80.43;101735.97;5077592;28;1421;-80
2023/09/27 12:00:38;;;;;;;;;;;;;;;21.26;79.47;101732.97;5080131;28;1489;-81
2023/09/27 12:03:04;;;;;;;;;;;;;;;21.29;79.12;101730.00;5087213;28;1254;-81
2023/09/27 12:05:29;;;;;;;;;;;;;;;21.33;78.84;101724.19;5086444;28;1020;-79
2023/09/27 12:07:55;;;;;;;;;;;;;;;21.37;78.01;101720.22;5075599;28;1965;-80
2023/09/27 12:10:20;;;;;;;;;;;;;;;21.42;78.35;101719.72;5073429;28;1527;-81
2023/09/27 12:12:45;;;;;;;;;;;;;;;21.46;78.11;101713.09;5084482;28;1009;-80
2023/09/27 12:15:10;;;;;;;;;;;;;;;21.53;77.69;101706.09;5081672;28;1310;-82
2023/09/27 12:17:36;;;;;;;;;;;;;;;21.61;77.60;101703.41;5072629;28;1276;-81
2023/09/27 12:20:01;;;;;;;;;;;;;;;21.69;77.29;101708.63;5075900;28;1434;-81
2023/09/27 12:22:28;;;;;;;;;;;;;;;21.77;77.43;101693.72;5082143;28;1373;-81
2023/09/27 12:24:53;;;;;;;;;;;;;;;21.82;76.62;101700.13;5092406;28;1034;-81
2023/09/27 12:27:18;;;;;;;;;;;;;;;21.79;73.31;101694.34;5088784;28;1295;-81
2023/09/27 12:29:43;;;;;;;;;;;;;;;21.69;72.51;101695.44;5085439;28;1909;-80
2023/09/27 12:32:09;;;;;;;;;;;;;;;21.67;75.64;101697.41;5088775;28;1373;-81
2023/09/27 12:34:34;;;;;;;;;;;;;;;21.65;75.35;101688.84;5086141;28;1296;-81
2023/09/27 12:36:59;;;;;;;;;;;;;;;21.66;75.66;101690.50;5083869;28;1238;-80
2023/09/27 12:39:24;;;;;;;;;;;;;;;21.69;75.78;101691.97;5088835;28;1250;-80
2023/09/27 12:41:49;;;;;;;;;;;;;;;21.70;75.86;101686.50;5083184;28;1515;-81